Time;durP1;ratioP1;P1;durP2;ratioP2;P2;SDS_P1;SDS_P2;PMS_P1;PMS_P2;Temp;Humidity;BMP_temperature;BMP_pressure;BME280_temperature;BME280_humidity;BME280_pressure;Samples;Min_cycle;Max_cycle;Signal;HPM_P1;HPM_P2
2023/04/29 00:02:10;;;;;;;45.95;41.35;;;;;;;3.05;100.00;101379.94;5086321;28;20459;-90
2023/04/29 00:04:37;;;;;;;57.80;47.20;;;;;;;2.99;100.00;101377.88;5083660;28;20040;-90
2023/04/29 00:07:04;;;;;;;50.53;41.30;;;;;;;2.94;100.00;101388.00;5084045;28;20048;-90
2023/04/29 00:09:31;;;;;;;63.67;50.35;;;;;;;2.88;100.00;101380.69;5089106;28;20040;-91
2023/04/29 00:11:57;;;;;;;55.03;45.00;;;;;;;2.89;100.00;101384.94;5083591;28;20432;-90
2023/04/29 00:14:24;;;;;;;51.72;42.40;;;;;;;2.78;100.00;101382.47;5083050;28;20041;-90
2023/04/29 00:16:52;;;;;;;50.72;44.80;;;;;;;2.96;100.00;101386.03;5088251;28;20081;-89
2023/04/29 00:19:19;;;;;;;47.97;42.05;;;;;;;2.78;100.00;101385.09;5083768;28;20048;-89
2023/04/29 00:21:46;;;;;;;47.40;42.25;;;;;;;2.69;100.00;101387.59;5086791;28;20055;-90
2023/04/29 00:24:13;;;;;;;42.90;38.28;;;;;;;2.41;100.00;101385.75;5085787;28;20059;-90
2023/04/29 00:26:41;;;;;;;41.50;36.90;;;;;;;2.40;100.00;101382.31;5088170;28;20040;-90
2023/04/29 00:29:07;;;;;;;42.17;37.80;;;;;;;2.55;100.00;101384.53;5089837;28;20075;-91
2023/04/29 00:31:36;;;;;;;42.00;37.60;;;;;;;2.53;100.00;101382.88;5089318;28;20040;-90
2023/04/29 00:34:04;;;;;;;42.50;38.10;;;;;;;2.49;100.00;101375.44;5087360;28;20051;-90
2023/04/29 00:36:32;;;;;;;44.50;39.72;;;;;;;2.68;100.00;101387.72;5090544;28;20060;-89
2023/04/29 00:38:58;;;;;;;42.45;38.00;;;;;;;2.71;100.00;101379.56;5088361;28;20040;-90
2023/04/29 00:41:26;;;;;;;44.38;39.55;;;;;;;2.70;100.00;101370.06;5085744;28;20138;-90
2023/04/29 00:43:53;;;;;;;43.55;38.80;;;;;;;2.63;100.00;101377.66;5083423;28;20048;-89
2023/04/29 00:46:20;;;;;;;45.35;40.55;;;;;;;2.77;100.00;101378.19;5090447;28;20539;-90
2023/04/29 00:48:46;;;;;;;44.85;40.25;;;;;;;2.65;100.00;101367.81;5087248;28;20048;-90
2023/04/29 00:51:16;;;;;;;42.53;38.28;;;;;;;2.81;100.00;101362.00;5084325;28;20044;-90
2023/04/29 00:53:43;;;;;;;40.55;36.20;;;;;;;2.94;100.00;101374.88;5087395;28;20105;-90
2023/04/29 00:56:13;;;;;;;40.75;36.40;;;;;;;3.20;100.00;101373.28;5085653;28;20044;-90
2023/04/29 00:58:44;;;;;;;39.00;34.13;;;;;;;3.02;100.00;101355.78;5089315;28;20558;-90
2023/04/29 01:01:11;;;;;;;40.80;36.55;;;;;;;3.13;100.00;101363.50;5082910;28;20421;-90
2023/04/29 01:03:38;;;;;;;39.45;34.80;;;;;;;2.67;100.00;101373.78;5087100;28;20074;-90
2023/04/29 01:06:20;;;;;;;42.40;38.15;;;;;;;3.29;100.00;101366.34;5086810;28;20460;-90
2023/04/29 01:09:03;;;;;;;42.57;38.07;;;;;;;3.48;100.00;101368.13;5088002;28;20075;-90
2023/04/29 01:11:36;;;;;;;43.97;39.53;;;;;;;3.22;100.00;101365.28;5078208;28;20313;-90
2023/04/29 01:14:04;;;;;;;43.88;39.50;;;;;;;3.36;100.00;101366.59;5092127;28;20048;-90
2023/04/29 01:16:38;;;;;;;43.42;39.17;;;;;;;3.26;100.00;101363.19;5089308;28;20059;-89
2023/04/29 01:19:16;;;;;;;42.53;38.17;;;;;;;3.05;100.00;101361.56;5092359;28;20080;-90
2023/04/29 01:21:48;;;;;;;48.35;43.55;;;;;;;2.19;100.00;101356.19;5094090;28;20085;-90
2023/04/29 01:24:16;;;;;;;42.83;38.33;;;;;;;2.75;100.00;101359.94;5090690;28;20068;-89
2023/04/29 01:26:49;;;;;;;40.65;36.35;;;;;;;2.91;100.00;101356.78;5088892;28;20044;-89
2023/04/29 01:29:27;;;;;;;39.95;35.65;;;;;;;2.79;100.00;101363.16;5089600;28;20040;-89
2023/04/29 01:32:03;;;;;;;39.60;35.58;;;;;;;2.82;100.00;101355.81;5088000;28;20059;-90
2023/04/29 01:34:40;;;;;;;43.75;39.08;;;;;;;2.43;100.00;101352.38;5092835;28;20067;-90
2023/04/29 01:37:14;;;;;;;42.38;37.83;;;;;;;2.55;100.00;101351.28;5088808;28;20044;-91
2023/04/29 01:39:54;;;;;;;42.50;37.95;;;;;;;2.56;100.00;101357.34;5089094;28;20043;-89
2023/04/29 01:42:27;;;;;;;39.10;35.08;;;;;;;2.26;100.00;101344.19;5091819;28;20463;-90
2023/04/29 01:44:57;;;;;;;39.75;34.78;;;;;;;2.44;100.00;101357.47;5089299;28;20059;-90
2023/04/29 01:47:24;;;;;;;39.67;35.50;;;;;;;2.44;100.00;101360.09;5090683;28;20059;-90
2023/04/29 01:49:51;;;;;;;41.17;36.90;;;;;;;2.47;100.00;101356.38;5083597;28;20040;-89
2023/04/29 01:52:18;;;;;;;40.03;35.67;;;;;;;2.22;100.00;101342.00;5087332;28;20420;-90
2023/04/29 01:54:49;;;;;;;42.10;37.67;;;;;;;1.77;100.00;101345.91;5088873;28;20041;-90
2023/04/29 01:57:16;;;;;;;39.65;35.47;;;;;;;1.98;100.00;101347.63;5090510;28;20043;-90
2023/04/29 01:59:43;;;;;;;43.28;38.58;;;;;;;2.09;100.00;101349.28;5086120;28;20079;-90
2023/04/29 02:02:10;;;;;;;41.83;37.28;;;;;;;1.97;100.00;101346.78;5087834;28;20047;-90
2023/04/29 02:04:37;;;;;;;42.38;37.40;;;;;;;1.92;100.00;101343.72;5090687;28;20504;-90
2023/04/29 02:07:04;;;;;;;42.50;37.50;;;;;;;1.73;100.00;101354.16;5093576;28;20060;-90
2023/04/29 02:09:30;;;;;;;47.28;38.92;;;;;;;1.87;100.00;101345.09;5084121;28;20418;-90
2023/04/29 02:11:59;;;;;;;43.33;37.83;;;;;;;1.84;100.00;101333.09;5092977;28;20047;-90
2023/04/29 02:14:26;;;;;;;45.97;41.10;;;;;;;1.85;100.00;101340.00;5092816;28;20040;-90
2023/04/29 02:16:53;;;;;;;42.88;38.17;;;;;;;1.71;100.00;101341.19;5087846;28;20066;-90
2023/04/29 02:19:19;;;;;;;40.00;35.67;;;;;;;1.62;100.00;101343.78;5091886;28;20040;-90
2023/04/29 02:21:46;;;;;;;41.30;37.17;;;;;;;1.55;100.00;101338.25;5087787;28;20056;-90
2023/04/29 02:24:13;;;;;;;42.30;37.08;;;;;;;1.30;100.00;101339.50;5083560;28;20052;-90
2023/04/29 02:26:40;;;;;;;44.17;39.53;;;;;;;1.41;100.00;101338.59;5085457;28;20039;-90
2023/04/29 02:29:08;;;;;;;48.15;37.00;;;;;;;1.51;100.00;101336.84;5088554;28;20047;-89
2023/04/29 02:31:35;;;;;;;42.13;37.58;;;;;;;1.45;100.00;101332.13;5081718;28;20507;-90
2023/04/29 02:34:03;;;;;;;45.58;36.97;;;;;;;1.33;100.00;101326.16;5083237;28;20048;-90
2023/04/29 02:36:30;;;;;;;47.85;40.08;;;;;;;1.48;100.00;101334.47;5087457;28;20421;-90
2023/04/29 02:38:58;;;;;;;46.55;38.88;;;;;;;1.50;100.00;101325.53;5087497;28;20046;-90
2023/04/29 02:41:25;;;;;;;50.00;38.42;;;;;;;1.51;100.00;101334.22;5085024;28;20048;-90
2023/04/29 02:43:52;;;;;;;44.40;37.95;;;;;;;1.65;100.00;101333.03;5083889;28;20044;-89
2023/04/29 02:46:21;;;;;;;44.05;39.00;;;;;;;1.71;100.00;101325.47;5083744;28;20048;-90
2023/04/29 02:48:47;;;;;;;45.63;38.88;;;;;;;1.78;100.00;101333.63;5091770;28;20501;-89
2023/04/29 02:51:15;;;;;;;44.42;37.00;;;;;;;1.57;100.00;101336.31;5091256;28;20064;-90
2023/04/29 02:53:41;;;;;;;44.10;37.53;;;;;;;1.76;100.00;101325.09;5089493;28;20045;-90
2023/04/29 02:56:08;;;;;;;47.53;40.70;;;;;;;1.53;100.00;101322.66;5088276;28;20052;-90
2023/04/29 02:58:35;;;;;;;40.60;35.80;;;;;;;1.55;100.00;101331.22;5088723;28;20043;-90
2023/04/29 03:01:02;;;;;;;44.20;37.17;;;;;;;1.12;100.00;101323.56;5090140;28;20048;-90
2023/04/29 03:03:30;;;;;;;42.85;38.25;;;;;;;1.29;100.00;101322.13;5086626;28;20054;-90
2023/04/29 03:05:57;;;;;;;46.20;37.70;;;;;;;1.19;100.00;101329.94;5087022;28;20052;-90
2023/04/29 03:08:24;;;;;;;61.88;48.85;;;;;;;1.66;100.00;101327.66;5084784;28;20410;-90
2023/04/29 03:10:51;;;;;;;39.83;35.42;;;;;;;1.63;100.00;101327.09;5088499;28;20040;-90
2023/04/29 03:13:18;;;;;;;39.90;35.50;;;;;;;1.92;100.00;101330.63;5089931;28;20054;-90
2023/04/29 03:15:44;;;;;;;38.03;33.92;;;;;;;1.58;100.00;101336.19;5088087;28;20048;-89
2023/04/29 03:18:11;;;;;;;39.10;34.78;;;;;;;1.64;100.00;101331.41;5087890;28;20130;-90
2023/04/29 03:20:39;;;;;;;39.40;35.22;;;;;;;1.25;100.00;101339.91;5089751;28;20047;-90
2023/04/29 03:23:06;;;;;;;40.33;35.80;;;;;;;1.57;100.00;101337.16;5086125;28;20055;-90
2023/04/29 03:25:33;;;;;;;40.20;34.97;;;;;;;1.77;100.00;101351.13;5086305;28;20047;-90
2023/04/29 03:28:00;;;;;;;38.13;34.25;;;;;;;1.80;100.00;101332.53;5088654;28;20056;-90
2023/04/29 03:30:27;;;;;;;38.33;34.17;;;;;;;1.59;100.00;101353.53;5087841;28;20040;-90
2023/04/29 03:32:54;;;;;;;38.97;34.90;;;;;;;1.69;100.00;101353.56;5091727;28;20424;-90
2023/04/29 03:35:21;;;;;;;36.78;32.70;;;;;;;1.82;100.00;101348.13;5086163;28;20049;-89
2023/04/29 03:37:49;;;;;;;38.40;34.20;;;;;;;1.77;100.00;101355.56;5089024;28;20045;-89
2023/04/29 03:40:16;;;;;;;37.83;33.83;;;;;;;1.79;100.00;101358.88;5088182;28;20048;-90
2023/04/29 03:42:43;;;;;;;37.28;33.20;;;;;;;2.09;100.00;101358.00;5083836;28;20500;-89
2023/04/29 03:45:12;;;;;;;37.80;34.00;;;;;;;2.17;100.00;101358.13;5084575;28;20129;-90
2023/04/29 03:47:38;;;;;;;37.63;33.80;;;;;;;2.29;100.00;101371.94;5088701;28;20217;-90
2023/04/29 03:50:07;;;;;;;40.72;33.80;;;;;;;2.50;100.00;101370.03;5087906;28;20040;-89
2023/04/29 03:52:35;;;;;;;35.75;31.95;;;;;;;2.42;100.00;101367.28;5087734;28;20044;-90
2023/04/29 03:55:03;;;;;;;36.47;32.85;;;;;;;2.40;100.00;101371.00;5088064;28;20047;-90
2023/04/29 03:57:30;;;;;;;36.17;32.65;;;;;;;2.50;100.00;101367.41;5084189;28;20043;-90
2023/04/29 03:59:57;;;;;;;37.63;34.03;;;;;;;2.58;100.00;101371.97;5084942;28;20040;-90
2023/04/29 04:02:24;;;;;;;45.58;40.88;;;;;;;2.89;100.00;101377.91;5089353;28;20044;-91
2023/04/29 04:04:51;;;;;;;45.42;40.67;;;;;;;3.15;100.00;101374.69;5088541;28;20040;-90
2023/04/29 04:07:17;;;;;;;37.00;33.47;;;;;;;3.23;100.00;101380.06;5090672;28;20412;-90
2023/04/29 04:10:27;;;;;;;34.63;31.27;;;;;;;3.11;100.00;101363.63;5088760;28;20052;-90
2023/04/29 04:12:55;;;;;;;38.17;34.45;;;;;;;3.30;100.00;101378.53;5057889;28;20511;-90
2023/04/29 04:15:22;;;;;;;37.97;34.55;;;;;;;3.39;100.00;101372.44;5082833;28;20055;-90
2023/04/29 04:17:49;;;;;;;37.88;34.58;;;;;;;3.40;100.00;101378.50;5083720;28;20040;-90
2023/04/29 04:20:16;;;;;;;37.03;33.63;;;;;;;3.46;100.00;101379.72;5088839;28;20478;-90
2023/04/29 04:22:43;;;;;;;38.17;34.92;;;;;;;3.56;100.00;101378.72;5081265;28;20551;-90
2023/04/29 04:25:10;;;;;;;38.25;35.13;;;;;;;3.64;100.00;101376.19;5087086;28;20042;-90
2023/04/29 04:27:37;;;;;;;38.40;35.00;;;;;;;3.74;100.00;101368.28;5085718;28;20048;-91
2023/04/29 04:30:07;;;;;;;36.80;33.53;;;;;;;3.64;100.00;101378.81;5087039;28;20401;-90
2023/04/29 04:32:34;;;;;;;34.90;31.85;;;;;;;3.78;100.00;101374.06;5083655;28;20044;-90
2023/04/29 04:35:01;;;;;;;37.13;33.60;;;;;;;3.64;100.00;101375.38;5081919;28;20554;-90
2023/04/29 04:37:28;;;;;;;38.80;35.70;;;;;;;4.05;100.00;101370.59;5082936;28;20093;-90
2023/04/29 04:39:54;;;;;;;35.92;33.03;;;;;;;4.28;100.00;101373.66;5084404;28;20104;-90
2023/04/29 04:42:22;;;;;;;36.47;33.47;;;;;;;4.34;100.00;101367.78;5082462;28;20040;-89
2023/04/29 04:44:49;;;;;;;35.17;32.38;;;;;;;4.38;100.00;101366.50;5077337;28;20528;-90
2023/04/29 04:47:19;;;;;;;34.55;31.63;;;;;;;4.61;100.00;101374.78;5079957;28;20055;-89
2023/04/29 04:49:48;;;;;;;35.17;32.28;;;;;;;4.59;100.00;101355.69;5082183;28;20056;-90
2023/04/29 04:52:15;;;;;;;34.47;31.42;;;;;;;4.71;100.00;101370.28;5080771;28;20055;-90
2023/04/29 04:54:46;;;;;;;34.53;31.75;;;;;;;4.76;100.00;101361.94;5080665;28;20036;-90
2023/04/29 04:57:13;;;;;;;36.30;33.00;;;;;;;5.09;100.00;101368.28;5080122;28;20102;-91
2023/04/29 04:59:39;;;;;;;36.70;33.50;;;;;;;5.13;100.00;101372.25;5084924;28;20047;-90
2023/04/29 05:02:07;;;;;;;35.85;32.70;;;;;;;5.38;100.00;101372.41;5078353;28;20040;-90
2023/04/29 05:04:35;;;;;;;34.72;31.92;;;;;;;5.44;100.00;101362.06;5083573;28;20051;-90
2023/04/29 05:07:02;;;;;;;36.40;33.47;;;;;;;5.60;100.00;101358.69;5081944;28;20059;-90
2023/04/29 05:09:29;;;;;;;38.72;35.75;;;;;;;5.87;100.00;101362.94;5080351;28;20053;-90
2023/04/29 05:11:58;;;;;;;35.40;32.40;;;;;;;5.93;100.00;101359.69;5080284;28;20044;-90
2023/04/29 05:14:25;;;;;;;37.33;34.17;;;;;;;6.29;100.00;101366.53;5080118;28;20052;-90
2023/04/29 05:16:52;;;;;;;33.80;30.92;;;;;;;6.31;100.00;101362.75;5080391;28;20044;-90
2023/04/29 05:19:19;;;;;;;33.83;31.20;;;;;;;6.50;100.00;101373.97;5089084;28;20512;-89
2023/04/29 05:21:47;;;;;;;34.63;31.88;;;;;;;6.61;100.00;101373.69;5082764;28;20071;-90
2023/04/29 05:24:14;;;;;;;34.53;31.63;;;;;;;6.94;100.00;101369.22;5082957;28;20056;-91
2023/04/29 05:26:42;;;;;;;34.83;31.88;;;;;;;6.81;100.00;101363.63;5082479;28;20049;-90
2023/04/29 05:29:09;;;;;;;33.47;30.63;;;;;;;6.97;100.00;101368.06;5079668;28;20044;-90
2023/04/29 05:31:37;;;;;;;31.58;29.08;;;;;;;7.05;100.00;101363.63;5076883;28;20109;-90
2023/04/29 05:34:04;;;;;;;32.83;29.92;;;;;;;7.23;100.00;101368.72;5082022;28;20044;-90
2023/04/29 05:36:31;;;;;;;33.58;31.08;;;;;;;7.28;100.00;101363.72;5081171;28;20048;-89
2023/04/29 05:38:59;;;;;;;33.75;30.92;;;;;;;7.71;100.00;101366.06;5083259;28;20036;-89
2023/04/29 05:41:26;;;;;;;32.67;30.02;;;;;;;7.72;100.00;101365.91;5085719;28;20048;-90
2023/04/29 05:44:03;;;;;;;;;;;;;;;;;;;;;
2023/04/29 05:46:30;;;;;;;35.03;32.00;;;;;;;8.15;100.00;101362.91;5078892;28;20074;-90
2023/04/29 05:48:57;;;;;;;31.35;28.92;;;;;;;8.42;100.00;101354.50;5081166;28;20052;-90
2023/04/29 05:51:23;;;;;;;31.55;28.92;;;;;;;8.66;100.00;101363.28;5082140;28;20036;-90
2023/04/29 05:53:50;;;;;;;29.77;27.45;;;;;;;8.84;100.00;101345.25;5080292;28;20044;-91
2023/04/29 05:56:21;;;;;;;29.52;27.23;;;;;;;9.61;100.00;101347.56;5086400;28;20040;-90
2023/04/29 05:58:48;;;;;;;20.55;18.67;;;;;;;10.16;100.00;101331.28;5089449;28;20131;-90
2023/04/29 06:01:16;;;;;;;21.45;19.55;;;;;;;10.70;100.00;101336.94;5086203;28;20055;-90
2023/04/29 06:03:43;;;;;;;23.02;20.75;;;;;;;10.75;100.00;101339.03;5092656;28;20075;-90
2023/04/29 06:06:10;;;;;;;19.90;18.10;;;;;;;10.74;100.00;101345.34;5083753;28;20059;-91
2023/04/29 06:08:37;;;;;;;20.75;18.73;;;;;;;10.93;100.00;101342.03;5086965;28;20067;-91
2023/04/29 06:11:05;;;;;;;95.35;43.28;;;;;;;11.00;100.00;101337.59;5085690;28;20056;-90
2023/04/29 06:13:33;;;;;;;45.38;28.95;;;;;;;11.35;100.00;101345.59;5083626;28;20040;-91
2023/04/29 06:16:00;;;;;;;40.15;26.52;;;;;;;11.43;100.00;101339.28;5085448;28;20047;-90
2023/04/29 06:18:27;;;;;;;24.35;21.98;;;;;;;11.46;100.00;101337.06;5090437;28;20044;-90
2023/04/29 06:20:54;;;;;;;21.10;19.10;;;;;;;11.69;100.00;101336.75;5086635;28;20127;-90
2023/04/29 06:23:21;;;;;;;26.30;19.27;;;;;;;11.70;100.00;101343.72;5082067;28;20052;-90
2023/04/29 06:25:48;;;;;;;21.85;19.80;;;;;;;11.61;100.00;101349.41;5083212;28;20067;-90
2023/04/29 06:28:15;;;;;;;21.58;19.52;;;;;;;11.77;100.00;101340.25;5085774;28;20044;-91
2023/04/29 06:30:44;;;;;;;22.98;20.98;;;;;;;12.21;100.00;101329.19;5087524;28;20513;-91
2023/04/29 06:33:12;;;;;;;23.65;21.35;;;;;;;12.33;100.00;101329.41;5092233;28;20139;-90
2023/04/29 06:35:40;;;;;;;20.88;18.98;;;;;;;12.00;100.00;101332.81;5086735;28;20048;-90
2023/04/29 06:38:08;;;;;;;24.30;22.00;;;;;;;12.13;100.00;101332.03;5083799;28;20048;-90
2023/04/29 06:40:35;;;;;;;25.73;23.13;;;;;;;12.00;100.00;101332.81;5089196;28;20048;-90
2023/04/29 06:43:03;;;;;;;22.17;19.77;;;;;;;12.30;100.00;101329.81;5085635;28;20083;-91
2023/04/29 06:45:30;;;;;;;23.02;21.02;;;;;;;12.42;100.00;101325.53;5082499;28;20048;-90
2023/04/29 06:47:59;;;;;;;21.75;19.75;;;;;;;12.59;100.00;101326.78;5091937;28;20056;-91
2023/04/29 06:50:27;;;;;;;23.20;20.85;;;;;;;12.89;100.00;101326.38;5080930;28;20127;-91
2023/04/29 06:52:55;;;;;;;23.70;21.25;;;;;;;13.15;100.00;101324.69;5081951;28;20056;-91
2023/04/29 06:55:22;;;;;;;21.80;20.00;;;;;;;13.19;100.00;101321.41;5083767;28;20050;-91
2023/04/29 06:57:52;;;;;;;23.23;21.08;;;;;;;13.20;100.00;101319.56;5082505;28;20049;-90
2023/04/29 07:00:21;;;;;;;24.75;22.55;;;;;;;13.40;100.00;101319.53;5083255;28;20067;-90
2023/04/29 07:02:48;;;;;;;23.63;21.83;;;;;;;13.57;100.00;101309.22;5087601;28;20052;-91
2023/04/29 07:05:18;;;;;;;20.30;18.67;;;;;;;14.02;100.00;101319.91;5080249;28;20045;-90
2023/04/29 07:07:45;;;;;;;21.90;20.10;;;;;;;13.60;100.00;101312.28;5086858;28;20048;-91
2023/04/29 07:10:11;;;;;;;24.02;22.17;;;;;;;13.24;100.00;101324.25;5081474;28;20040;-90
2023/04/29 07:12:38;;;;;;;22.13;19.98;;;;;;;13.31;100.00;101326.94;5081206;28;20113;-91
2023/04/29 07:15:06;;;;;;;21.88;20.27;;;;;;;13.57;100.00;101317.22;5077432;28;20047;-90
2023/04/29 07:17:33;;;;;;;25.45;23.20;;;;;;;13.41;100.00;101326.53;5086230;28;20052;-90
2023/04/29 07:20:00;;;;;;;25.05;22.95;;;;;;;13.82;100.00;101312.81;5078617;28;20101;-91
2023/04/29 07:22:28;;;;;;;24.90;22.38;;;;;;;14.06;100.00;101308.56;5086720;28;20048;-90
2023/04/29 07:24:56;;;;;;;22.58;20.90;;;;;;;14.10;100.00;101311.63;5080520;28;20051;-91
2023/04/29 07:27:23;;;;;;;25.65;23.48;;;;;;;14.42;100.00;101313.25;5077859;28;20041;-90
2023/04/29 07:29:50;;;;;;;25.50;23.35;;;;;;;13.44;94.09;101307.44;5080826;28;20122;-90
2023/04/29 07:41:29;;;;;;;23.15;21.35;;;;;;;14.00;95.76;101309.41;5081824;28;20110;-91
2023/04/29 07:47:12;;;;;;;24.92;22.50;;;;;;;14.43;97.63;101306.91;5099508;28;20056;-91
2023/04/29 07:53:19;;;;;;;23.70;21.70;;;;;;;14.50;97.00;101296.16;5098826;28;20048;-91
2023/04/29 07:59:45;;;;;;;25.13;23.05;;;;;;;15.08;100.00;101301.22;5038051;28;20045;-89
2023/04/29 08:05:11;;;;;;;24.48;22.38;;;;;;;14.61;88.29;101291.97;5097403;28;20050;-91
2023/04/29 08:11:12;;;;;;;25.13;23.00;;;;;;;14.71;84.18;101286.97;5060028;28;20048;-91
2023/04/29 08:14:04;;;;;;;24.70;22.75;;;;;;;15.27;84.07;101275.28;5059223;28;20049;-90
2023/04/29 08:16:48;;;;;;;23.60;21.35;;;;;;;15.00;74.89;101281.94;5090643;28;20051;-90
2023/04/29 08:25:08;;;;;;;23.73;21.77;;;;;;;15.36;78.08;101270.44;5098043;28;20055;-91
2023/04/29 08:27:45;;;;;;;24.92;22.92;;;;;;;15.60;84.18;101262.53;5092379;28;20107;-90
2023/04/29 08:30:18;;;;;;;23.73;21.80;;;;;;;15.46;65.54;101259.19;5097087;28;20512;-91
2023/04/29 08:36:32;;;;;;;23.88;21.90;;;;;;;15.70;62.02;101263.69;5039582;28;20086;-90
2023/04/29 08:45:40;;;;;;;25.63;23.52;;;;;;;15.56;84.71;101260.31;5068151;28;20059;-91
2023/04/29 08:51:24;;;;;;;29.40;26.65;;;;;;;15.87;70.62;101238.94;4997858;28;20057;-91
2023/04/29 08:54:11;;;;;;;26.58;24.40;;;;;;;16.34;61.75;101245.22;5004959;28;20080;-91
2023/04/29 08:56:39;;;;;;;25.25;23.25;;;;;;;15.99;59.07;101235.22;5005053;28;20078;-90
2023/04/29 08:59:09;;;;;;;27.23;24.88;;;;;;;15.67;60.58;101250.72;5002535;28;20049;-91
2023/04/29 09:01:38;;;;;;;26.27;24.08;;;;;;;16.32;59.59;101243.81;5024997;28;20047;-91
2023/04/29 09:04:21;;;;;;;24.35;22.25;;;;;;;16.31;55.81;101247.50;5083783;28;20665;-90
2023/04/29 09:06:51;;;;;;;24.33;22.25;;;;;;;16.23;55.75;101240.66;5083673;28;20052;-91
2023/04/29 09:09:21;;;;;;;23.38;21.45;;;;;;;16.89;59.24;101239.53;5082882;28;20044;-91
2023/04/29 09:11:48;;;;;;;23.90;22.00;;;;;;;16.52;56.84;101240.78;5078482;28;20063;-91
2023/04/29 09:24:01;;;;;;;24.08;22.08;;;;;;;16.90;55.36;101225.06;5035066;28;20059;-90
2023/04/29 09:26:55;;;;;;;25.67;23.33;;;;;;;17.29;56.19;101219.97;5084023;28;20049;-94
2023/04/29 09:55:07;;;;;;;27.83;25.75;;;;;;;18.18;49.19;101186.34;5084738;28;20052;-93
2023/04/29 10:01:47;;;;;;;24.73;22.52;;;;;;;17.92;60.15;101163.66;5027593;28;20076;-92
2023/04/29 10:11:38;;;;;;;23.60;21.60;;;;;;;17.40;62.22;101160.03;5080524;28;20048;-93
2023/04/29 10:14:23;;;;;;;23.98;21.90;;;;;;;18.57;65.61;101164.88;5085641;28;20054;-93
2023/04/29 10:17:47;;;;;;;22.98;21.05;;;;;;;18.28;81.48;101165.03;5083360;28;20048;-93
2023/04/29 10:23:42;;;;;;;23.30;21.23;;;;;;;19.44;55.67;101153.28;5087425;28;20493;-94
2023/04/29 10:26:49;;;;;;;24.88;22.92;;;;;;;18.41;71.60;101158.47;5085053;28;20049;-93
2023/04/29 10:39:06;;;;;;;24.27;22.50;;;;;;;18.61;47.97;101147.16;5008501;28;20126;-94
2023/04/29 10:45:35;;;;;;;24.23;22.13;;;;;;;18.71;60.22;101142.75;5048077;28;20523;-92
2023/04/29 10:52:16;;;;;;;26.88;24.88;;;;;;;19.31;44.72;101134.84;5007015;28;20049;-92
2023/04/29 11:09:16;;;;;;;;;;;;;;;;;;;;;
2023/04/29 11:15:21;;;;;;;24.92;22.83;;;;;;;21.26;43.80;101108.00;5138104;27;20127;-92
2023/04/29 11:18:33;;;;;;;24.88;22.75;;;;;;;20.18;59.35;101109.44;5147425;27;20138;-92
2023/04/29 11:21:27;;;;;;;24.30;22.17;;;;;;;18.26;81.38;101118.75;5145261;27;20111;-93
2023/04/29 11:24:17;;;;;;;24.60;22.33;;;;;;;18.90;57.99;101115.56;5143957;27;20108;-93
2023/04/29 11:45:40;;;;;;;23.80;21.70;;;;;;;21.31;49.15;101112.63;5059901;27;20122;-93
2023/04/29 11:51:28;;;;;;;25.35;23.42;;;;;;;19.29;56.01;101105.47;5144032;27;20026;-92
2023/04/29 11:53:58;;;;;;;25.23;23.33;;;;;;;21.08;46.25;101105.81;5147168;27;20047;-92
2023/04/29 11:56:25;;;;;;;24.95;22.90;;;;;;;22.14;41.56;101101.53;5143703;27;20047;-93
2023/04/29 11:58:56;;;;;;;23.52;21.45;;;;;;;21.26;48.74;101094.50;5143428;27;20043;-93
2023/04/29 12:01:22;;;;;;;26.45;24.52;;;;;;;21.43;47.81;101102.41;5146196;27;20363;-92
2023/04/29 12:03:50;;;;;;;24.05;22.05;;;;;;;21.13;50.87;101087.72;5144827;27;20043;-91
2023/04/29 12:06:17;;;;;;;25.23;23.20;;;;;;;18.65;71.73;101089.13;5143093;27;20065;-92
2023/04/29 12:08:47;;;;;;;24.38;22.48;;;;;;;18.02;57.04;101083.19;5147509;27;20111;-96
2023/04/29 12:11:17;;;;;;;23.52;21.73;;;;;;;19.17;72.72;101075.19;5138072;27;20524;-94
2023/04/29 12:13:44;;;;;;;23.08;21.23;;;;;;;17.80;58.80;101080.44;5131474;27;20062;-93
2023/04/29 12:16:11;;;;;;;24.95;22.70;;;;;;;17.96;46.60;101081.47;5130591;27;20454;-92
2023/04/29 12:18:38;;;;;;;25.10;23.15;;;;;;;19.87;44.94;101084.97;5132939;27;20050;-91
2023/04/29 12:21:06;;;;;;;26.13;24.02;;;;;;;19.11;48.52;101068.16;5128925;27;20043;-93
2023/04/29 12:23:32;;;;;;;25.90;24.00;;;;;;;20.09;47.43;101066.00;5129007;27;20036;-93
2023/04/29 12:26:01;;;;;;;26.17;24.10;;;;;;;20.00;41.30;101067.56;5130829;27;20051;-93
2023/04/29 12:28:29;;;;;;;23.63;21.73;;;;;;;21.44;39.74;101066.19;5130154;27;20047;-91
2023/04/29 12:30:59;;;;;;;23.92;22.13;;;;;;;20.80;48.28;101062.00;5130802;27;20051;-92
2023/04/29 12:33:27;;;;;;;24.63;22.73;;;;;;;21.05;42.25;101061.25;5133749;27;20084;-92
2023/04/29 12:35:56;;;;;;;23.73;22.02;;;;;;;19.41;49.54;101060.34;5128921;27;20048;-92
2023/04/29 12:38:26;;;;;;;22.52;20.63;;;;;;;18.97;51.03;101059.66;5130129;27;20050;-92
2023/04/29 12:40:53;;;;;;;23.42;21.50;;;;;;;20.57;44.33;101047.91;5127290;27;20047;-92
2023/04/29 12:43:20;;;;;;;21.80;19.80;;;;;;;20.57;43.88;101047.91;5132483;27;20039;-93
2023/04/29 12:45:54;;;;;;;22.42;20.73;;;;;;;20.96;47.92;101060.16;5131823;27;20049;-92
2023/04/29 12:48:21;;;;;;;24.15;22.08;;;;;;;20.69;48.59;101044.97;5128031;27;20047;-92
2023/04/29 12:50:50;;;;;;;24.33;22.42;;;;;;;20.53;41.84;101035.19;5129312;27;20066;-92
2023/04/29 12:53:17;;;;;;;23.20;21.25;;;;;;;19.32;55.81;101032.25;5129893;27;20067;-92
2023/04/29 12:55:44;;;;;;;24.80;22.90;;;;;;;19.84;49.68;101034.28;5130826;27;20139;-92
2023/04/29 12:58:11;;;;;;;26.00;24.00;;;;;;;17.08;45.87;101035.44;5129418;27;20058;-93
2023/04/29 13:00:38;;;;;;;24.77;22.80;;;;;;;18.96;43.36;101025.72;5115775;27;20058;-92
2023/04/29 13:03:06;;;;;;;24.65;22.75;;;;;;;19.13;48.47;101025.63;5111510;28;20054;-92
2023/04/29 13:05:33;;;;;;;22.33;20.63;;;;;;;17.75;46.24;101030.09;5109854;28;20085;-92
2023/04/29 13:08:00;;;;;;;23.67;21.60;;;;;;;18.84;44.24;101023.19;5110206;28;20040;-92
2023/04/29 13:10:28;;;;;;;24.15;22.25;;;;;;;18.43;54.29;101027.28;5110227;28;20067;-92
2023/04/29 13:23:20;;;;;;;26.42;24.42;;;;;;;19.03;43.76;101004.00;5031822;28;20045;-92
2023/04/29 13:26:16;;;;;;;23.65;21.65;;;;;;;19.76;48.18;101004.31;5052177;28;20048;-92
2023/04/29 13:47:53;;;;;;;22.98;21.20;;;;;;;20.98;44.96;100977.81;5105263;28;20059;-92
2023/04/29 13:54:01;;;;;;;22.08;20.38;;;;;;;19.63;49.77;100989.38;5005219;28;20139;-93
2023/04/29 13:56:44;;;;;;;;;;;;;;;20.31;46.94;100981.41;5108234;27;20047;-92
2023/04/29 13:59:41;;;;;;;22.88;20.88;;;;;;;20.48;44.51;100973.91;5111709;27;19951;-92
2023/04/29 14:08:35;;;;;;;24.25;22.35;;;;;;;19.29;47.33;100976.22;5100466;28;20116;-92
2023/04/29 14:11:35;;;;;;;23.83;21.70;;;;;;;20.53;55.52;100970.44;5109502;28;20679;-92
2023/04/29 14:14:33;;;;;;;55.58;51.35;;;;;;;20.42;46.38;100966.06;5104168;28;20054;-92
2023/04/29 14:17:42;;;;;;;53.72;49.90;;;;;;;20.56;43.78;100957.22;5105878;28;20043;-92
2023/04/29 14:20:53;;;;;;;61.50;56.30;;;;;;;20.67;42.89;100949.19;5105807;28;20048;-92
2023/04/29 14:23:40;;;;;;;61.72;56.47;;;;;;;20.50;44.70;100954.75;5106346;28;20051;-92
2023/04/29 14:35:49;;;;;;;60.63;55.63;;;;;;;19.02;50.35;100959.31;5096615;28;20148;-92
2023/04/29 14:38:16;;;;;;;63.90;58.40;;;;;;;18.74;62.61;100953.94;5108124;28;20054;-93
2023/04/29 14:40:43;;;;;;;58.17;53.28;;;;;;;18.12;67.87;100953.50;5105861;28;20188;-92
2023/04/29 14:43:10;;;;;;;59.53;54.75;;;;;;;17.80;68.94;100964.91;5107138;28;20515;-91
2023/04/29 14:45:37;;;;;;;61.15;56.08;;;;;;;17.92;70.04;100962.94;5106726;28;20439;-92
2023/04/29 14:48:04;;;;;;;62.47;57.40;;;;;;;18.27;63.75;100962.53;5106780;28;20499;-93
2023/04/29 14:50:31;;;;;;;64.57;58.90;;;;;;;18.11;63.25;100958.06;5108714;28;20048;-93